Time;durP1;ratioP1;P1;durP2;ratioP2;P2;SDS_P1;SDS_P2;PMS_P1;PMS_P2;Temp;Humidity;BMP_temperature;BMP_pressure;BME280_temperature;BME280_humidity;BME280_pressure;Samples;Min_cycle;Max_cycle;Signal;HPM_P1;HPM_P2
2022/05/13 00:01:06;;;;;;;;;11.00;9.25;;;;;16.40;41.29;101566.56;5030718;28;62061;-57
2022/05/13 00:03:32;;;;;;;;;13.50;10.00;;;;;16.37;41.47;101566.66;5035431;28;45723;-57
2022/05/13 00:05:57;;;;;;;;;15.00;12.00;;;;;16.36;41.58;101564.06;5036536;28;47033;-57
2022/05/13 00:08:23;;;;;;;;;24.75;17.25;;;;;16.33;41.59;101559.78;5039647;28;45373;-58
2022/05/13 00:10:48;;;;;;;;;14.25;11.25;;;;;16.31;41.57;101562.47;5035602;28;60251;-57
2022/05/13 00:13:14;;;;;;;;;10.75;10.00;;;;;16.29;41.90;101566.97;5028120;28;62395;-57
2022/05/13 00:15:44;;;;;;;;;12.75;11.00;;;;;16.28;41.91;101567.88;5028101;28;45602;-57
2022/05/13 00:18:10;;;;;;;;;7.50;6.00;;;;;16.27;41.53;101570.56;5036567;28;45390;-57
2022/05/13 00:20:35;;;;;;;;;4.25;4.00;;;;;16.23;41.88;101572.47;5026980;28;45447;-57
2022/05/13 00:23:01;;;;;;;;;2.25;1.50;;;;;16.19;41.45;101572.66;5039777;28;68125;-57
2022/05/13 00:25:30;;;;;;;;;2.25;1.00;;;;;16.13;41.51;101569.31;5035230;28;46366;-57
2022/05/13 00:27:56;;;;;;;;;1.50;0.25;;;;;16.05;41.81;101565.22;5024799;28;45837;-57
2022/05/13 00:30:23;;;;;;;;;2.25;1.00;;;;;16.04;41.62;101572.28;5032664;28;45243;-57
2022/05/13 00:32:49;;;;;;;;;4.25;2.00;;;;;16.02;42.08;101571.47;5039047;28;45415;-57
2022/05/13 00:35:16;;;;;;;;;0.50;0.25;;;;;15.96;41.92;101566.41;5036781;28;45387;-57
2022/05/13 00:37:42;;;;;;;;;3.00;1.00;;;;;15.88;42.48;101558.78;5036766;28;45295;-57
2022/05/13 00:40:08;;;;;;;;;1.00;1.00;;;;;15.90;42.41;101564.00;5026991;28;45459;-57
2022/05/13 00:42:33;;;;;;;;;2.00;1.00;;;;;15.87;42.13;101556.19;5040746;28;45298;-57
2022/05/13 00:44:59;;;;;;;;;2.00;1.00;;;;;15.87;41.87;101562.34;5035274;28;47148;-57
2022/05/13 00:47:25;;;;;;;;;3.00;1.00;;;;;15.83;42.33;101559.84;5034144;28;68499;-56
2022/05/13 00:49:51;;;;;;;;;2.25;1.00;;;;;15.85;42.25;101563.31;5023346;28;45512;-56
2022/05/13 00:52:17;;;;;;;;;1.00;0.25;;;;;15.81;42.06;101554.66;5036743;28;45238;-57
2022/05/13 00:54:43;;;;;;;;;3.00;1.00;;;;;15.79;42.18;101559.09;5027611;28;46278;-56
2022/05/13 00:57:11;;;;;;;;;1.50;0.00;;;;;15.76;42.29;101556.59;5025187;28;45463;-56
2022/05/13 00:59:38;;;;;;;;;1.00;1.00;;;;;15.75;42.04;101560.97;5023842;28;45344;-56
2022/05/13 01:02:03;;;;;;;;;1.25;0.25;;;;;15.75;42.29;101558.34;5034026;28;45413;-57
2022/05/13 01:04:29;;;;;;;;;0.00;0.00;;;;;15.74;42.30;101566.28;5032732;28;45314;-56
2022/05/13 01:06:58;;;;;;;;;2.00;0.00;;;;;15.72;42.21;101566.34;5030416;28;45418;-55
2022/05/13 01:09:27;;;;;;;;;2.75;0.75;;;;;15.68;42.31;101563.88;5023106;28;45451;-56
2022/05/13 01:11:55;;;;;;;;;2.75;1.75;;;;;15.64;42.06;101559.63;5021530;28;45514;-56
2022/05/13 01:14:24;;;;;;;;;2.00;0.25;;;;;15.65;42.57;101563.97;5036016;28;46263;-56
2022/05/13 01:19:34;;;;;;;;;1.00;1.00;;;;;15.60;42.39;101563.25;5024878;28;45472;-58
2022/05/13 01:22:12;;;;;;;;;1.00;1.00;;;;;15.57;42.20;101562.47;5034204;28;69209;-57
2022/05/13 01:24:38;;;;;;;;;0.50;0.50;;;;;15.58;42.11;101568.59;5023924;28;47086;-56
2022/05/13 01:27:04;;;;;;;;;4.00;1.00;;;;;15.57;42.10;101570.38;5035977;28;45355;-57
2022/05/13 01:29:29;;;;;;;;;1.75;1.75;;;;;15.57;42.59;101562.47;5036950;28;45614;-56
2022/05/13 01:31:54;;;;;;;;;2.25;1.25;;;;;15.57;42.34;101562.47;5035922;28;65296;-56
2022/05/13 01:34:20;;;;;;;;;2.00;2.00;;;;;15.55;42.33;101563.44;5040055;28;45248;-55
2022/05/13 01:36:45;;;;;;;;;2.00;1.00;;;;;15.53;42.53;101574.03;5036100;28;45430;-56
2022/05/13 01:39:11;;;;;;;;;3.75;1.00;;;;;15.49;42.43;101564.53;5039036;28;64969;-56
2022/05/13 01:41:36;;;;;;;;;1.00;1.00;;;;;15.49;42.68;101574.19;5025245;28;45266;-56
2022/05/13 01:44:02;;;;;;;;;3.75;1.00;;;;;15.45;42.28;101570.78;5028017;28;46271;-56
2022/05/13 01:46:28;;;;;;;;;2.00;1.00;;;;;15.46;42.49;101579.59;5020772;28;45463;-56
2022/05/13 01:48:54;;;;;;;;;4.50;2.00;;;;;15.45;42.43;101567.31;5023406;28;52216;-55
2022/05/13 01:51:20;;;;;;;;;3.00;2.00;;;;;15.44;42.52;101570.84;5030106;28;45373;-56
2022/05/13 01:53:45;;;;;;;;;6.00;2.50;;;;;15.45;42.64;101562.88;5037739;28;46270;-56
2022/05/13 01:56:11;;;;;;;;;5.00;3.00;;;;;15.47;42.88;101562.81;5035343;28;45371;-56
2022/05/13 01:58:36;;;;;;;;;4.75;3.00;;;;;15.49;42.79;101569.78;5030709;28;45726;-56
2022/05/13 02:01:04;;;;;;;;;15.25;7.25;;;;;15.52;42.68;101563.53;5031815;28;45576;-56
2022/05/13 02:03:45;;;;;;;;;10.50;9.75;;;;;15.50;43.03;101568.88;5036045;28;46310;-56
2022/05/13 02:06:17;;;;;;;;;11.75;7.25;;;;;15.44;42.45;101566.44;5029066;28;45757;-56
2022/05/13 02:08:43;;;;;;;;;11.00;8.00;;;;;15.41;43.49;101565.69;5020647;28;45279;-56
2022/05/13 02:11:09;;;;;;;;;7.25;5.00;;;;;15.36;43.05;101555.28;5033754;28;45310;-56
2022/05/13 02:13:35;;;;;;;;;6.25;6.25;;;;;15.35;43.25;101564.09;5038163;28;46384;-55
2022/05/13 02:16:01;;;;;;;;;7.00;6.50;;;;;15.34;43.31;101565.88;5037475;28;45370;-56
2022/05/13 02:18:26;;;;;;;;;8.00;7.00;;;;;15.33;43.33;101565.94;5038448;28;45775;-58
2022/05/13 02:20:52;;;;;;;;;8.00;5.00;;;;;15.34;43.51;101565.03;5031179;28;45451;-57
2022/05/13 02:23:20;;;;;;;;;7.00;4.00;;;;;15.32;43.34;101562.44;5020827;28;45451;-57
2022/05/13 02:25:46;;;;;;;;;4.00;3.25;;;;;15.30;43.57;101566.06;5030098;28;45386;-55
2022/05/13 02:28:11;;;;;;;;;5.50;3.00;;;;;15.27;43.66;101569.63;5035409;28;45276;-55
2022/05/13 02:30:37;;;;;;;;;4.75;3.00;;;;;15.25;44.04;101566.19;5035071;28;59696;-56
2022/05/13 02:33:02;;;;;;;;;2.25;2.25;;;;;15.24;43.65;101567.09;5037482;28;45383;-56
2022/05/13 02:35:28;;;;;;;;;6.75;2.75;;;;;15.23;44.14;101568.03;5031664;28;67822;-56
2022/05/13 02:37:53;;;;;;;;;3.75;3.75;;;;;15.25;43.77;101566.19;5039916;28;49116;-56
2022/05/13 02:40:20;;;;;;;;;7.50;2.75;;;;;15.23;43.94;101570.66;5033522;28;45145;-56
2022/05/13 02:42:46;;;;;;;;;4.00;3.25;;;;;15.22;44.05;101573.34;5040042;28;45287;-56
2022/05/13 02:45:12;;;;;;;;;2.25;2.00;;;;;15.21;44.58;101575.13;5027851;28;66409;-57
2022/05/13 02:47:39;;;;;;;;;3.75;3.00;;;;;15.21;44.63;101569.84;5037667;28;45487;-55
2022/05/13 02:50:18;;;;;;;;;3.00;2.00;;;;;15.20;44.14;101578.66;5035776;28;45482;-56
2022/05/13 02:52:48;;;;;;;;;3.50;1.75;;;;;15.17;44.35;101568.22;5030108;28;46247;-57
2022/05/13 02:55:14;;;;;;;;;1.00;1.00;;;;;15.13;44.34;101571.88;5034717;28;46386;-56
2022/05/13 02:57:39;;;;;;;;;1.75;1.50;;;;;15.11;44.78;101574.56;5026360;28;45329;-56
2022/05/13 03:00:05;;;;;;;;;3.00;1.00;;;;;15.09;44.49;101563.19;5033811;28;49436;-55
2022/05/13 03:02:31;;;;;;;;;1.50;1.50;;;;;15.08;44.94;101569.38;5034654;28;46287;-56
2022/05/13 03:04:57;;;;;;;;;4.00;1.75;;;;;15.07;44.73;101566.78;5034779;28;45501;-57
2022/05/13 03:07:22;;;;;;;;;3.50;1.00;;;;;15.06;44.95;101554.53;5036882;28;64341;-57
2022/05/13 03:09:48;;;;;;;;;1.75;1.00;;;;;15.07;45.05;101567.66;5030430;28;45451;-55
2022/05/13 03:12:13;;;;;;;;;4.50;2.00;;;;;15.06;45.13;101565.06;5035444;28;67334;-55
2022/05/13 03:14:38;;;;;;;;;2.00;2.00;;;;;15.00;45.20;101568.78;5033689;28;55998;-55
2022/05/13 03:17:07;;;;;;;;;3.00;1.00;;;;;15.00;45.34;101568.78;5021881;28;62662;-55
2022/05/13 03:19:35;;;;;;;;;3.00;2.00;;;;;15.00;45.62;101567.00;5024201;28;45416;-55
2022/05/13 03:22:00;;;;;;;;;2.75;1.25;;;;;15.00;45.82;101567.00;5034803;28;47127;-56
2022/05/13 03:24:25;;;;;;;;;2.25;1.75;;;;;15.02;45.71;101566.94;5037215;28;69387;-56
2022/05/13 03:26:51;;;;;;;;;3.00;2.50;;;;;15.05;45.88;101564.22;5028120;28;62233;-56
2022/05/13 03:29:16;;;;;;;;;3.25;1.75;;;;;15.07;46.32;101561.50;5035485;28;45541;-56
2022/05/13 03:31:41;;;;;;;;;2.75;1.00;;;;;15.06;45.75;101563.28;5036095;28;69838;-56
2022/05/13 03:34:07;;;;;;;;;2.50;2.00;;;;;15.03;45.81;101555.47;5024710;28;65367;-56
2022/05/13 03:36:32;;;;;;;;;3.00;2.50;;;;;15.07;45.77;101559.75;5034323;28;64930;-56
2022/05/13 03:38:57;;;;;;;;;2.00;2.00;;;;;15.07;46.10;101567.66;5037501;28;45204;-56
2022/05/13 03:41:23;;;;;;;;;2.50;1.00;;;;;15.06;46.01;101571.19;5029397;28;68642;-56
2022/05/13 03:43:48;;;;;;;;;2.50;2.00;;;;;15.05;46.09;101561.59;5032672;28;65516;-56
2022/05/13 03:46:13;;;;;;;;;3.00;2.00;;;;;15.05;45.94;101566.84;5024070;28;45556;-56
2022/05/13 03:48:39;;;;;;;;;1.50;1.00;;;;;15.05;46.06;101565.97;5026562;28;65667;-56
2022/05/13 03:51:04;;;;;;;;;3.75;1.25;;;;;15.05;45.89;101566.84;5028259;28;49749;-56
2022/05/13 03:53:30;;;;;;;;;4.75;2.00;;;;;15.06;45.89;101572.97;5033794;28;47060;-56
2022/05/13 03:55:55;;;;;;;;;3.00;2.00;;;;;15.03;45.87;101573.06;5039738;28;45358;-55
2022/05/13 03:58:20;;;;;;;;;1.50;1.00;;;;;15.02;45.82;101579.28;5040928;28;45541;-56
2022/05/13 04:00:46;;;;;;;;;2.75;2.00;;;;;14.94;46.15;101567.22;5028167;28;46434;-56
2022/05/13 04:03:13;;;;;;;;;3.75;1.50;;;;;14.97;46.30;101580.25;5039370;28;45506;-56
2022/05/13 04:11:07;;;;;;;;;6.75;2.00;;;;;14.94;46.55;101583.03;5039109;28;45484;-56
2022/05/13 04:16:16;;;;;;;;;2.00;1.00;;;;;14.93;46.89;101575.16;5037796;28;45269;-56
2022/05/13 04:18:44;;;;;;;;;3.75;2.00;;;;;14.93;47.25;101573.38;5040615;28;65343;-56
2022/05/13 04:21:13;;;;;;;;;1.50;1.25;;;;;14.93;47.48;101576.00;5029280;28;46319;-56
2022/05/13 04:23:41;;;;;;;;;2.75;2.75;;;;;14.94;47.49;101572.47;5023987;28;45155;-56
2022/05/13 04:26:07;;;;;;;;;2.00;2.00;;;;;14.92;47.24;101576.91;5031942;28;45716;-56
2022/05/13 04:28:32;;;;;;;;;3.75;1.25;;;;;14.95;47.08;101575.97;5032522;28;45408;-56
2022/05/13 04:31:00;;;;;;;;;5.00;2.00;;;;;14.93;47.79;101581.28;5034636;28;68644;-56
2022/05/13 04:33:26;;;;;;;;;3.25;3.00;;;;;14.94;47.24;101588.28;5038259;28;45430;-56
2022/05/13 04:35:52;;;;;;;;;3.75;1.50;;;;;14.93;47.66;101589.19;5031385;28;45549;-56
2022/05/13 04:38:17;;;;;;;;;2.00;1.00;;;;;14.92;48.15;101592.72;5024224;28;45467;-56
2022/05/13 04:40:43;;;;;;;;;3.00;3.00;;;;;14.92;48.29;101595.34;5036832;28;69915;-57
2022/05/13 04:43:08;;;;;;;;;3.25;2.00;;;;;14.91;48.37;101590.13;5027257;28;67038;-56
2022/05/13 04:45:34;;;;;;;;;2.50;1.00;;;;;14.89;48.75;101592.84;5036485;28;45671;-56
2022/05/13 04:48:17;;;;;;;;;2.25;2.25;;;;;14.87;48.07;101591.16;5032436;28;45288;-56
2022/05/13 04:50:51;;;;;;;;;5.50;2.25;;;;;14.88;47.73;101595.53;5035078;28;45359;-56
2022/05/13 04:53:22;;;;;;;;;7.25;3.50;;;;;14.89;48.23;101595.47;5037870;28;45542;-56
2022/05/13 04:55:49;;;;;;;;;3.00;2.00;;;;;14.89;48.52;101592.84;5037101;28;45496;-56
2022/05/13 04:58:15;;;;;;;;;4.75;2.00;;;;;14.89;48.65;101602.50;5028498;28;45499;-56
2022/05/13 05:00:40;;;;;;;;;2.75;2.75;;;;;14.88;47.98;101590.25;5038495;28;46073;-58
2022/05/13 05:03:05;;;;;;;;;3.50;2.50;;;;;14.91;48.66;101605.94;5030220;28;45249;-57
2022/05/13 05:05:31;;;;;;;;;3.00;2.25;;;;;14.92;48.89;101613.81;5024981;28;45500;-57
2022/05/13 05:07:56;;;;;;;;;3.50;3.00;;;;;14.94;48.62;101611.13;5022926;28;64039;-57
2022/05/13 05:10:22;;;;;;;;;2.75;2.00;;;;;14.94;48.83;101619.91;5035344;28;45581;-57
2022/05/13 05:12:49;;;;;;;;;5.00;3.00;;;;;14.99;48.91;101619.75;5030035;28;45334;-56
2022/05/13 05:15:15;;;;;;;;;6.75;2.00;;;;;14.96;48.87;101620.72;5032491;28;45531;-58
2022/05/13 05:17:40;;;;;;;;;6.75;2.50;;;;;14.96;48.46;101628.63;5032139;28;45324;-57
2022/05/13 05:20:06;;;;;;;;;2.00;2.00;;;;;14.98;49.17;101621.53;5044389;28;47196;-57
2022/05/13 05:22:32;;;;;;;;;6.25;3.00;;;;;15.01;48.19;101623.22;5034553;28;45510;-56
2022/05/13 05:24:57;;;;;;;;;2.50;2.00;;;;;14.99;48.46;101619.75;5038161;28;45892;-57
2022/05/13 05:27:22;;;;;;;;;2.75;2.00;;;;;15.05;49.04;101630.13;5037643;28;45467;-57
2022/05/13 05:29:48;;;;;;;;;4.00;2.00;;;;;15.04;48.71;101628.38;5038587;28;63833;-57
2022/05/13 05:32:13;;;;;;;;;5.00;2.50;;;;;15.03;48.54;101631.06;5030111;28;61002;-57
2022/05/13 05:34:39;;;;;;;;;4.50;3.00;;;;;15.05;49.32;101643.31;5026544;28;45487;-57
2022/05/13 05:37:04;;;;;;;;;6.25;4.50;;;;;15.10;48.66;101644.03;5031447;28;45470;-57
2022/05/13 05:39:30;;;;;;;;;4.00;2.25;;;;;15.14;48.78;101639.53;5038760;28;69467;-58
2022/05/13 05:41:55;;;;;;;;;3.00;3.00;;;;;15.17;49.14;101636.75;5031726;28;61787;-57
2022/05/13 05:44:20;;;;;;;;;2.25;0.75;;;;;15.16;48.99;101638.56;5025691;28;60831;-57
2022/05/13 05:46:46;;;;;;;;;15.50;9.25;;;;;15.22;48.93;101645.41;5032212;28;62659;-55
2022/05/13 05:49:11;;;;;;;;;2.00;0.75;;;;;15.23;48.88;101644.50;5032220;28;70210;-57
2022/05/13 05:51:37;;;;;;;;;6.50;2.00;;;;;15.25;48.79;101650.59;5030357;28;45794;-57
2022/05/13 05:59:31;;;;;;;;;4.25;3.25;;;;;15.31;48.41;101658.28;5036151;28;45767;-58
2022/05/13 06:01:56;;;;;;;;;3.00;2.50;;;;;15.32;48.60;101654.75;5032267;28;45320;-59
2022/05/13 06:04:22;;;;;;;;;5.00;4.00;;;;;15.35;48.78;101666.97;5028430;28;60887;-58
2022/05/13 06:06:47;;;;;;;;;7.25;3.50;;;;;15.33;48.64;101664.41;5023769;28;45218;-58
2022/05/13 06:09:12;;;;;;;;;5.50;4.75;;;;;15.35;48.42;101664.31;5034919;28;45895;-58
2022/05/13 06:11:38;;;;;;;;;5.75;4.25;;;;;15.39;48.24;101668.59;5040366;28;45379;-58
2022/05/13 06:14:04;;;;;;;;;7.75;4.00;;;;;15.38;48.53;101675.63;5038354;28;45202;-58
2022/05/13 06:16:29;;;;;;;;;8.00;4.50;;;;;15.43;48.61;101680.78;5034151;28;45581;-58
2022/05/13 06:18:59;;;;;;;;;7.00;4.00;;;;;15.46;48.47;101679.84;5037216;28;45971;-58
2022/05/13 06:21:25;;;;;;;;;8.75;5.00;;;;;15.51;48.67;101681.41;5039165;28;45698;-58
2022/05/13 06:23:50;;;;;;;;;5.00;3.00;;;;;15.54;48.45;101685.69;5025940;28;45272;-58
2022/05/13 06:26:16;;;;;;;;;5.75;4.75;;;;;15.54;48.31;101675.16;5028111;28;66422;-58
2022/05/13 06:28:41;;;;;;;;;4.50;3.00;;;;;15.58;48.62;101676.75;5036701;28;70844;-58
2022/05/13 06:31:07;;;;;;;;;7.25;1.25;;;;;15.59;48.44;101681.13;5032443;28;45922;-58
2022/05/13 06:33:34;;;;;;;;;2.00;2.00;;;;;15.64;48.50;101694.19;5037252;28;45225;-58
2022/05/13 06:35:59;;;;;;;;;4.00;2.00;;;;;15.65;48.25;101691.50;5024563;28;45641;-58
2022/05/13 06:38:25;;;;;;;;;5.00;3.00;;;;;15.66;48.16;101690.56;5038444;28;69604;-58
2022/05/13 06:40:52;;;;;;;;;4.50;3.00;;;;;15.68;47.84;101694.03;5037443;28;45834;-58
2022/05/13 06:43:17;;;;;;;;;3.25;3.25;;;;;15.72;47.71;101697.41;5035092;28;45466;-58
2022/05/13 06:45:43;;;;;;;;;6.00;5.00;;;;;15.74;48.01;101692.94;5025727;28;46033;-58
2022/05/13 06:48:09;;;;;;;;;4.50;4.25;;;;;15.80;47.53;101691.94;5019276;28;47251;-57
2022/05/13 06:50:34;;;;;;;;;5.25;4.00;;;;;15.84;47.12;101689.13;5025963;28;45269;-56
2022/05/13 06:53:00;;;;;;;;;4.00;3.00;;;;;15.92;46.80;101699.44;5035501;28;45463;-57
2022/05/13 06:55:26;;;;;;;;;9.50;4.00;;;;;15.93;47.44;101696.72;5028808;28;45726;-57
2022/05/13 06:57:51;;;;;;;;;5.00;2.25;;;;;16.03;46.62;101707.84;5022010;28;63883;-57
2022/05/13 07:00:17;;;;;;;;;3.25;3.00;;;;;16.04;46.83;101699.03;5041078;28;46631;-56
2022/05/13 07:02:43;;;;;;;;;9.25;3.00;;;;;16.09;46.23;101705.00;5030410;28;45441;-57
2022/05/13 07:05:10;;;;;;;;;1.50;1.50;;;;;16.12;46.17;101707.53;5036284;28;45305;-57
2022/05/13 07:07:35;;;;;;;;;2.25;2.25;;;;;16.14;46.04;101705.69;5019530;28;46463;-57
2022/05/13 07:10:01;;;;;;;;;2.50;2.50;;;;;16.21;45.43;101710.78;5024133;28;45377;-56
2022/05/13 07:12:26;;;;;;;;;7.25;4.00;;;;;16.24;45.91;101711.53;5041186;28;45281;-51
2022/05/13 07:14:53;;;;;;;;;4.75;2.00;;;;;16.27;45.39;101713.19;5034205;28;45471;-51
2022/05/13 07:17:19;;;;;;;;;5.00;2.25;;;;;16.39;45.22;101711.91;5027581;28;45451;-51
2022/05/13 07:19:44;;;;;;;;;6.00;2.25;;;;;16.43;44.68;101717.03;5045098;28;45906;-49
2022/05/13 07:22:10;;;;;;;;;2.00;2.00;;;;;16.47;44.78;101723.06;5044947;28;45503;-50
2022/05/13 07:24:35;;;;;;;;;3.50;2.00;;;;;16.52;44.71;101723.78;5037455;28;45277;-50
2022/05/13 07:27:00;;;;;;;;;4.00;4.00;;;;;16.52;44.90;101714.06;5036519;28;51212;-52
2022/05/13 07:29:26;;;;;;;;;6.00;5.00;;;;;16.62;44.39;101725.13;5025650;28;45235;-56
2022/05/13 07:31:51;;;;;;;;;5.50;4.00;;;;;16.65;43.80;101718.91;5025281;28;61122;-57
2022/05/13 07:34:17;;;;;;;;;6.00;3.25;;;;;16.68;43.89;101716.16;5036780;28;45463;-57
2022/05/13 07:36:42;;;;;;;;;5.50;3.00;;;;;16.72;43.96;101719.53;5040270;28;45372;-57
2022/05/13 07:41:52;;;;;;;;;3.00;2.00;;;;;16.82;44.00;101728.81;5040728;28;45249;-57
2022/05/13 07:44:17;;;;;;;;;3.00;3.00;;;;;16.88;43.61;101718.06;5026263;28;66969;-57
2022/05/13 07:46:43;;;;;;;;;7.00;3.00;;;;;16.95;43.80;101718.72;5045494;28;45306;-57
2022/05/13 07:49:09;;;;;;;;;2.50;2.00;;;;;16.96;43.58;101723.06;5045571;28;45302;-57
2022/05/13 07:51:34;;;;;;;;;3.00;2.00;;;;;17.02;43.48;101728.97;5041621;28;45473;-58
2022/05/13 07:54:00;;;;;;;;;3.25;1.00;;;;;17.08;43.32;101730.53;5045841;28;45324;-57
2022/05/13 07:56:25;;;;;;;;;4.00;2.00;;;;;17.14;43.56;101727.66;5045428;28;45994;-57
2022/05/13 07:58:53;;;;;;;;;3.75;2.00;;;;;17.21;43.40;101725.63;5045517;28;45361;-57
2022/05/13 08:01:18;;;;;;;;;4.50;3.25;;;;;17.29;43.04;101726.19;5040412;28;45736;-57
2022/05/13 08:03:44;;;;;;;;;2.25;2.00;;;;;17.34;42.74;101732.16;5043572;28;45457;-57
2022/05/13 08:06:13;;;;;;;;;1.00;1.00;;;;;17.38;42.80;101724.97;5025825;28;46057;-58
2022/05/13 08:08:41;;;;;;;;;1.00;1.00;;;;;17.43;42.85;101723.00;5026034;28;45232;-57
2022/05/13 08:11:11;;;;;;;;;3.25;2.25;;;;;17.48;42.91;101725.47;5025689;28;45360;-57
2022/05/13 08:13:37;;;;;;;;;3.00;2.25;;;;;17.49;42.68;101725.38;5024016;28;45309;-57
2022/05/13 08:16:08;;;;;;;;;3.50;3.00;;;;;17.52;42.49;101721.78;5025940;28;45364;-57
2022/05/13 08:18:34;;;;;;;;;4.00;2.75;;;;;17.56;42.63;101724.22;5025460;28;45333;-57
2022/05/13 08:21:00;;;;;;;;;5.25;3.00;;;;;17.61;42.89;101719.59;5025024;28;45272;-57
2022/05/13 08:23:25;;;;;;;;;2.00;1.75;;;;;17.67;42.43;101726.47;5021426;28;45423;-57
2022/05/13 08:25:50;;;;;;;;;4.00;2.50;;;;;17.73;42.09;101715.59;5038369;28;64540;-57
2022/05/13 08:28:18;;;;;;;;;6.50;2.00;;;;;17.82;42.26;101727.59;5041755;28;45281;-57
2022/05/13 08:30:44;;;;;;;;;2.50;2.00;;;;;17.84;41.85;101721.28;5040288;28;45256;-57
2022/05/13 08:33:10;;;;;;;;;5.00;2.50;;;;;17.90;41.45;101720.25;5041977;28;45525;-58
2022/05/13 08:35:49;;;;;;;;;5.25;2.50;;;;;17.99;41.59;101719.00;5042116;28;46033;-57
2022/05/13 08:38:16;;;;;;;;;1.50;1.50;;;;;18.06;41.50;101722.22;5041918;28;45367;-57
2022/05/13 08:40:53;;;;;;;;;3.50;1.00;;;;;18.12;41.17;101730.78;5041994;28;45352;-57
2022/05/13 08:43:25;;;;;;;;;3.00;1.75;;;;;18.14;41.01;101720.97;5035085;28;45210;-58
2022/05/13 08:45:57;;;;;;;;;3.75;1.50;;;;;18.17;41.22;101731.44;5021682;28;46297;-57
2022/05/13 08:48:30;;;;;;;;;2.50;2.50;;;;;18.24;40.96;101733.81;5011617;28;46115;-60
2022/05/13 08:51:09;;;;;;;;;4.00;2.25;;;;;18.33;41.26;101723.69;5026551;28;45300;-57
2022/05/13 08:54:15;;;;;;;;;4.00;1.25;;;;;18.47;40.40;101731.03;5020918;28;45403;-57
2022/05/13 08:56:47;;;;;;;;;2.00;2.00;;;;;18.57;40.58;101732.34;5030867;28;45367;-57
2022/05/13 08:59:17;;;;;;;;;1.50;1.50;;;;;18.65;40.53;101734.66;5029726;28;45714;-57
2022/05/13 09:02:06;;;;;;;;;4.00;2.00;;;;;18.74;40.55;101731.56;5021828;28;45181;-57
2022/05/13 09:04:43;;;;;;;;;6.25;2.75;;;;;18.88;40.77;101723.03;5021413;28;45397;-58
2022/05/13 09:07:18;;;;;;;;;2.00;2.00;;;;;18.99;39.84;101721.69;5020399;28;45411;-57
2022/05/13 09:09:47;;;;;;;;;4.25;2.00;;;;;19.07;39.41;101720.38;5021528;28;45320;-57
2022/05/13 09:12:18;;;;;;;;;5.25;3.75;;;;;19.13;39.87;101713.91;5021628;28;45250;-57
2022/05/13 09:14:53;;;;;;;;;2.75;0.75;;;;;19.27;38.90;101724.75;5021204;28;45614;-57
2022/05/13 09:17:34;;;;;;;;;3.75;2.50;;;;;19.41;38.55;101717.91;5033621;28;46990;-57
2022/05/13 09:20:08;;;;;;;;;1.25;1.00;;;;;19.60;37.69;101720.50;5021613;28;45474;-57
2022/05/13 09:22:39;;;;;;;;;4.25;2.00;;;;;19.77;37.91;101723.22;5021596;28;45323;-57
2022/05/13 09:25:05;;;;;;;;;2.00;2.00;;;;;19.97;37.75;101727.53;5024384;28;45461;-57
2022/05/13 09:27:48;;;;;;;;;1.25;1.00;;;;;20.18;37.05;101724.72;5027614;28;46177;-58
2022/05/13 09:30:18;;;;;;;;;1.25;1.00;;;;;20.39;37.02;101722.75;5041055;28;45308;-57
2022/05/13 09:32:43;;;;;;;;;4.25;1.00;;;;;20.56;36.22;101722.72;5040357;28;45282;-58
2022/05/13 09:35:15;;;;;;;;;1.75;1.00;;;;;20.75;36.14;101719.09;5041173;28;45355;-57
2022/05/13 09:37:43;;;;;;;;;2.50;2.00;;;;;20.99;36.75;101723.06;5039471;28;46396;-57
2022/05/13 09:40:23;;;;;;;;;3.00;1.25;;;;;21.33;36.05;101726.50;5040993;28;45221;-57
2022/05/13 09:42:50;;;;;;;;;3.75;1.00;;;;;21.81;35.77;101726.47;5041027;28;45421;-57
2022/05/13 09:45:26;;;;;;;;;2.50;1.75;;;;;22.55;33.93;101719.41;5023622;28;45266;-57
2022/05/13 09:48:01;;;;;;;;;1.25;1.25;;;;;24.11;33.97;101725.41;5020791;28;45288;-58
2022/05/13 09:50:33;;;;;;;;;1.00;1.00;;;;;26.13;32.18;101725.06;5033328;28;45243;-58
2022/05/13 09:53:10;;;;;;;;;1.75;1.25;;;;;28.22;28.51;101720.66;5039753;28;45317;-58
2022/05/13 09:55:38;;;;;;;;;1.75;1.00;;;;;30.02;26.32;101704.50;5039644;28;45483;-58
2022/05/13 09:58:08;;;;;;;;;2.75;0.25;;;;;31.71;24.22;101716.00;5040534;28;45340;-57
2022/05/13 10:00:39;;;;;;;;;1.00;1.00;;;;;33.17;24.93;101718.91;5039275;28;45683;-57
2022/05/13 10:03:09;;;;;;;;;3.50;3.00;;;;;34.18;22.91;101718.59;5036563;28;45503;-55
2022/05/13 10:05:34;;;;;;;;;2.00;1.00;;;;;34.95;22.10;101711.69;5020820;28;45624;-56
2022/05/13 10:08:08;;;;;;;;;4.25;2.25;;;;;35.44;20.61;101705.09;5020639;28;45354;-54
2022/05/13 10:16:28;;;;;;;;;0.75;0.75;;;;;37.43;18.81;101700.72;5039386;28;45345;-56
2022/05/13 10:19:24;;;;;;;;;2.00;2.00;;;;;38.41;18.18;101697.25;5040302;28;45965;-56
2022/05/13 10:22:13;;;;;;;;;8.50;5.00;;;;;39.26;17.54;101698.63;5040458;28;45627;-56
2022/05/13 10:25:03;;;;;;;;;0.00;0.00;;;;;39.79;18.38;101691.47;5031891;28;45379;-55
2022/05/13 10:27:36;;;;;;;;;3.75;2.00;;;;;40.17;16.46;101694.38;5025442;28;45481;-55
2022/05/13 10:30:33;;;;;;;;;1.75;0.25;;;;;40.37;17.18;101694.31;5023200;28;45427;-55
2022/05/13 10:33:05;;;;;;;;;2.75;1.00;;;;;40.37;15.91;101683.34;5030605;28;45593;-55
2022/05/13 10:35:45;;;;;;;;;2.00;1.00;;;;;40.66;15.38;101694.84;5039286;28;45339;-55
2022/05/13 10:38:30;;;;;;;;;0.25;0.25;;;;;40.94;15.23;101685.41;5038951;28;45246;-55
2022/05/13 10:41:11;;;;;;;;;2.25;1.25;;;;;41.37;15.38;101687.47;5038787;28;45472;-56
2022/05/13 10:43:52;;;;;;;;;2.00;2.00;;;;;41.65;15.34;101686.16;5033810;28;45222;-57
2022/05/13 10:46:25;;;;;;;;;1.00;0.25;;;;;42.11;14.94;101685.75;5018228;28;45296;-56
2022/05/13 10:48:52;;;;;;;;;2.00;0.50;;;;;42.51;14.15;101676.19;5026994;28;45477;-56
2022/05/13 10:51:29;;;;;;;;;3.50;2.75;;;;;42.74;14.39;101678.19;5038579;28;45502;-56
2022/05/13 10:54:02;;;;;;;;;1.00;1.00;;;;;43.00;13.37;101673.41;5038702;28;45404;-56
2022/05/13 10:56:38;;;;;;;;;1.75;1.50;;;;;42.93;13.50;101680.94;5039505;28;45465;-56
2022/05/13 10:59:15;;;;;;;;;1.00;0.00;;;;;43.05;13.63;101671.59;5037388;28;45297;-57
2022/05/13 11:02:04;;;;;;;;;4.50;1.75;;;;;43.07;12.95;101668.63;5038328;28;45296;-56
2022/05/13 11:05:06;;;;;;;;;2.75;1.75;;;;;43.18;12.33;101667.78;5024851;28;45345;-56
2022/05/13 11:07:32;;;;;;;;;5.00;2.50;;;;;43.04;13.53;101672.66;5039773;28;45302;-56
2022/05/13 11:10:20;;;;;;;;;4.00;1.50;;;;;42.75;11.89;101673.50;5039548;28;45276;-56
2022/05/13 11:12:51;;;;;;;;;2.75;1.00;;;;;42.76;13.29;101669.69;5039053;28;46116;-56
2022/05/13 11:15:28;;;;;;;;;1.00;1.00;;;;;42.84;12.69;101672.94;5037356;28;45203;-56
2022/05/13 11:17:57;;;;;;;;;3.25;2.00;;;;;42.88;13.03;101661.47;5018438;28;45265;-56
2022/05/13 11:20:50;;;;;;;;;9.25;4.75;;;;;42.68;13.59;101668.13;5019485;28;45523;-58
2022/05/13 11:27:02;;;;;;;;;3.00;1.00;;;;;42.41;12.60;101656.59;5028067;28;45610;-57
2022/05/13 11:29:47;;;;;;;;;3.25;2.00;;;;;42.68;12.84;101657.94;5019327;28;46455;-56
2022/05/13 11:32:43;;;;;;;;;5.00;1.75;;;;;43.02;12.67;101661.06;5029695;28;45340;-56
2022/05/13 11:35:14;;;;;;;;;0.50;0.50;;;;;42.92;11.89;101648.94;5038989;28;46133;-56
2022/05/13 11:37:42;;;;;;;;;3.00;1.00;;;;;42.89;13.04;101660.38;5038889;28;45219;-56
2022/05/13 11:40:29;;;;;;;;;2.00;2.00;;;;;42.75;12.55;101649.59;5039172;28;45315;-57
2022/05/13 11:43:19;;;;;;;;;2.50;2.00;;;;;42.76;11.96;101648.50;5036350;28;45713;-57
2022/05/13 11:46:22;;;;;;;;;3.25;2.25;;;;;42.66;12.38;101646.31;5018494;28;46203;-57
2022/05/13 11:49:11;;;;;;;;;7.25;5.50;;;;;42.36;13.17;101649.03;5026509;28;45369;-56
2022/05/13 11:51:37;;;;;;;;;1.50;1.50;;;;;42.00;12.72;101644.38;5031553;28;45548;-57
2022/05/13 11:54:03;;;;;;;;;3.50;1.50;;;;;41.59;12.36;101638.44;5039075;28;45379;-57
2022/05/13 11:56:31;;;;;;;;;1.75;1.25;;;;;41.32;12.64;101643.34;5039645;28;45320;-56
2022/05/13 11:59:10;;;;;;;;;8.50;7.00;;;;;40.97;12.49;101636.38;5042123;28;45272;-56
2022/05/13 12:01:36;;;;;;;;;1.50;1.00;;;;;40.54;12.61;101639.81;5042461;28;45331;-56